Time;durP1;ratioP1;P1;durP2;ratioP2;P2;SDS_P1;SDS_P2;PMS_P1;PMS_P2;Temp;Humidity;BMP_temperature;BMP_pressure;BME280_temperature;BME280_humidity;BME280_pressure;Samples;Min_cycle;Max_cycle;Signal;HPM_P1;HPM_P2
2023/06/20 00:00:38;;;;;;;7.50;6.90;;;21.70;99.90;;;;;;4987656;28;20188;-42
2023/06/20 00:03:03;;;;;;;8.00;7.38;;;21.70;99.90;;;;;;4997661;28;20176;-42
2023/06/20 00:05:29;;;;;;;7.75;7.05;;;21.80;99.90;;;;;;4995693;28;20195;-42
2023/06/20 00:07:55;;;;;;;7.97;7.20;;;21.60;99.90;;;;;;4992067;28;20229;-41
2023/06/20 00:10:21;;;;;;;9.18;8.23;;;21.70;99.90;;;;;;4999977;28;20184;-42
2023/06/20 00:12:47;;;;;;;11.63;8.23;;;21.60;99.90;;;;;;4995250;28;20187;-41
2023/06/20 00:15:13;;;;;;;9.13;8.27;;;21.60;99.90;;;;;;4995387;28;20239;-40
2023/06/20 00:17:39;;;;;;;9.23;8.02;;;21.40;99.90;;;;;;4995749;28;20218;-44
2023/06/20 00:20:08;;;;;;;8.77;7.97;;;21.10;99.90;;;;;;4993624;28;20179;-44
2023/06/20 00:22:35;;;;;;;9.27;8.30;;;20.80;99.90;;;;;;4998502;28;20214;-45
2023/06/20 00:25:04;;;;;;;8.43;7.63;;;20.80;99.90;;;;;;4996476;28;20186;-44
2023/06/20 00:27:30;;;;;;;8.98;8.00;;;20.70;99.90;;;;;;4989055;28;20212;-44
2023/06/20 00:29:56;;;;;;;9.75;8.07;;;20.70;99.90;;;;;;5010108;28;20191;-43
2023/06/20 00:32:23;;;;;;;10.65;8.30;;;20.70;99.90;;;;;;5012695;28;20265;-42
2023/06/20 00:34:51;;;;;;;8.93;8.02;;;20.60;99.90;;;;;;4994615;28;20214;-44
2023/06/20 00:37:16;;;;;;;9.70;8.70;;;20.60;99.90;;;;;;4999025;28;20203;-43
2023/06/20 00:39:42;;;;;;;10.38;8.48;;;20.50;99.90;;;;;;5006016;28;20184;-45
2023/06/20 00:42:25;;;;;;;12.77;8.88;;;20.50;99.90;;;;;;4996332;28;20202;-44
2023/06/20 00:44:52;;;;;;;10.63;8.45;;;20.40;99.90;;;;;;4995516;28;20179;-44
2023/06/20 00:47:20;;;;;;;11.90;9.27;;;20.30;99.90;;;;;;5004032;28;20620;-44
2023/06/20 00:49:49;;;;;;;11.65;9.18;;;20.30;99.90;;;;;;4994960;28;20198;-44
2023/06/20 00:52:17;;;;;;;12.07;8.15;;;20.30;99.90;;;;;;5019263;28;20179;-45
2023/06/20 00:54:44;;;;;;;12.40;8.40;;;20.20;99.90;;;;;;4990273;28;20208;-45
2023/06/20 00:57:14;;;;;;;9.13;8.18;;;20.20;99.90;;;;;;4995793;28;20290;-42
2023/06/20 00:59:50;;;;;;;10.75;8.35;;;20.10;99.90;;;;;;4989399;28;20606;-41
2023/06/20 01:02:17;;;;;;;8.60;7.78;;;20.10;99.90;;;;;;5014264;28;20266;-44
2023/06/20 01:04:45;;;;;;;10.18;8.25;;;20.20;99.90;;;;;;4995275;28;20183;-45
2023/06/20 01:07:17;;;;;;;9.55;8.32;;;20.10;99.90;;;;;;4999922;28;20274;-44
2023/06/20 01:10:08;;;;;;;11.40;8.50;;;20.10;99.90;;;;;;5000749;28;20224;-44
2023/06/20 01:12:55;;;;;;;8.90;7.97;;;20.10;99.90;;;;;;5000935;28;20184;-44
2023/06/20 01:15:32;;;;;;;10.63;9.30;;;20.00;99.90;;;;;;4985969;28;20290;-44
2023/06/20 01:18:44;;;;;;;12.93;9.07;;;19.90;99.90;;;;;;4994583;28;20199;-44
2023/06/20 01:21:14;;;;;;;9.93;8.40;;;19.80;99.90;;;;;;4987487;28;20187;-41
2023/06/20 01:23:59;;;;;;;10.90;7.78;;;19.90;99.90;;;;;;5010916;28;20183;-44
2023/06/20 01:26:56;;;;;;;9.57;8.13;;;20.00;99.90;;;;;;5008312;28;20203;-44
2023/06/20 01:29:32;;;;;;;8.32;7.40;;;20.10;99.90;;;;;;5005139;28;20282;-39
2023/06/20 01:32:03;;;;;;;7.70;6.90;;;20.20;99.90;;;;;;5000369;28;20271;-44
2023/06/20 01:34:32;;;;;;;10.75;7.47;;;20.20;99.90;;;;;;4987678;28;20184;-44
2023/06/20 01:37:01;;;;;;;8.32;6.30;;;20.30;99.90;;;;;;4992512;28;20199;-44
2023/06/20 01:39:59;;;;;;;6.95;6.18;;;20.30;99.90;;;;;;4998416;28;20207;-41
2023/06/20 01:42:26;;;;;;;7.00;6.30;;;20.30;99.90;;;;;;4988817;28;20180;-42
2023/06/20 01:44:57;;;;;;;8.30;6.47;;;20.40;99.90;;;;;;4996863;28;20187;-44
2023/06/20 01:47:24;;;;;;;9.75;6.28;;;20.50;99.90;;;;;;5001044;28;20203;-42
2023/06/20 01:49:52;;;;;;;7.40;6.28;;;20.50;99.90;;;;;;4984990;28;20191;-44
2023/06/20 01:52:19;;;;;;;5.88;5.32;;;20.60;99.90;;;;;;5012213;28;20266;-43
2023/06/20 01:54:47;;;;;;;6.13;5.53;;;20.60;99.90;;;;;;4992548;28;20207;-40
2023/06/20 01:57:15;;;;;;;6.13;5.18;;;20.60;99.90;;;;;;4974794;28;20237;-41
2023/06/20 01:59:42;;;;;;;5.28;4.78;;;20.60;99.90;;;;;;5006926;28;20206;-44
2023/06/20 02:02:10;;;;;;;6.10;4.82;;;20.50;99.90;;;;;;5020144;28;20230;-44
2023/06/20 02:04:37;;;;;;;7.32;4.90;;;20.60;99.90;;;;;;4995644;28;20187;-44
2023/06/20 02:07:05;;;;;;;5.18;4.68;;;20.60;99.90;;;;;;4996272;28;20295;-44
2023/06/20 02:09:33;;;;;;;4.50;4.10;;;20.60;99.90;;;;;;4993164;28;20210;-43
2023/06/20 02:12:00;;;;;;;7.30;4.47;;;20.50;99.90;;;;;;4994702;28;20175;-43
2023/06/20 02:14:26;;;;;;;4.95;4.43;;;20.40;99.90;;;;;;4996424;28;20176;-42
2023/06/20 02:16:54;;;;;;;6.00;5.28;;;20.30;99.90;;;;;;5007050;28;20199;-43
2023/06/20 02:19:20;;;;;;;5.25;4.75;;;20.30;99.90;;;;;;4991026;28;20176;-44
2023/06/20 02:21:47;;;;;;;5.57;5.07;;;20.20;99.90;;;;;;4991227;28;20180;-43
2023/06/20 02:24:18;;;;;;;5.45;4.93;;;20.20;99.90;;;;;;4991560;28;20184;-43
2023/06/20 02:26:46;;;;;;;5.60;5.10;;;20.10;99.90;;;;;;5009783;28;20202;-43
2023/06/20 02:29:13;;;;;;;5.75;5.07;;;20.10;99.90;;;;;;4986210;28;20176;-43
2023/06/20 02:31:43;;;;;;;6.50;5.82;;;20.10;99.90;;;;;;4994408;28;20192;-44
2023/06/20 02:34:13;;;;;;;8.68;6.35;;;20.20;99.90;;;;;;5011494;28;20247;-43
2023/06/20 02:36:43;;;;;;;6.00;5.40;;;20.10;99.90;;;;;;4985147;28;20222;-44
2023/06/20 02:39:08;;;;;;;5.90;5.15;;;20.10;99.90;;;;;;4986618;28;20247;-40
2023/06/20 02:41:35;;;;;;;6.05;5.25;;;20.10;99.90;;;;;;4989767;28;20229;-43
2023/06/20 02:44:01;;;;;;;6.05;5.32;;;20.10;99.90;;;;;;4991811;28;20180;-42
2023/06/20 02:46:42;;;;;;;5.65;5.15;;;20.10;99.90;;;;;;5008581;28;20204;-43
2023/06/20 02:49:30;;;;;;;5.60;5.10;;;20.00;99.90;;;;;;4992029;28;20210;-43
2023/06/20 02:52:03;;;;;;;6.05;5.07;;;20.00;99.90;;;;;;5005977;28;20192;-42
2023/06/20 02:54:53;;;;;;;6.30;5.38;;;19.90;99.90;;;;;;5025259;28;20187;-43
2023/06/20 02:57:21;;;;;;;7.10;5.20;;;19.90;99.90;;;;;;4987429;28;20203;-41
2023/06/20 02:59:56;;;;;;;5.50;5.00;;;19.80;99.90;;;;;;4992340;28;20184;-43
2023/06/20 03:02:24;;;;;;;7.88;5.25;;;19.60;99.90;;;;;;5015175;28;20258;-43
2023/06/20 03:04:56;;;;;;;5.45;4.95;;;19.60;99.90;;;;;;5007044;28;20183;-44
2023/06/20 03:07:26;;;;;;;6.22;5.22;;;19.60;99.90;;;;;;4992921;28;20218;-43
2023/06/20 03:09:55;;;;;;;5.28;4.70;;;19.60;99.90;;;;;;4992384;28;20270;-44
2023/06/20 03:12:21;;;;;;;5.50;5.00;;;19.60;99.90;;;;;;4982729;28;20219;-43
2023/06/20 03:14:47;;;;;;;5.25;4.75;;;19.70;99.90;;;;;;5006424;28;20226;-41
2023/06/20 03:17:14;;;;;;;5.90;5.30;;;19.70;99.90;;;;;;4988119;28;20246;-43
2023/06/20 03:19:39;;;;;;;6.97;4.95;;;19.70;99.90;;;;;;4993587;28;20179;-43
2023/06/20 03:22:11;;;;;;;5.25;4.70;;;19.70;99.90;;;;;;4986568;28;20176;-43
2023/06/20 03:24:37;;;;;;;5.22;4.72;;;19.70;99.90;;;;;;4982588;28;20213;-43
2023/06/20 03:27:03;;;;;;;5.95;4.60;;;19.70;99.90;;;;;;4973585;28;20191;-34
2023/06/20 03:29:29;;;;;;;5.57;5.07;;;19.70;99.90;;;;;;4996550;28;20182;-36
2023/06/20 03:31:55;;;;;;;5.72;4.95;;;19.60;99.90;;;;;;5002064;28;20270;-38
2023/06/20 03:34:21;;;;;;;9.05;5.18;;;19.60;99.90;;;;;;4993983;28;20269;-36
2023/06/20 03:36:47;;;;;;;6.15;5.55;;;19.60;99.90;;;;;;4992532;28;20236;-37
2023/06/20 03:39:13;;;;;;;6.25;5.50;;;19.60;99.90;;;;;;4995947;28;20171;-37
2023/06/20 03:41:38;;;;;;;5.60;5.07;;;19.60;99.90;;;;;;4994289;28;20208;-35
2023/06/20 03:44:04;;;;;;;5.22;4.72;;;19.60;99.90;;;;;;5004261;28;20186;-33
2023/06/20 03:46:31;;;;;;;7.32;6.03;;;19.60;99.90;;;;;;5000228;28;20206;-38
2023/06/20 03:48:58;;;;;;;7.90;6.95;;;19.60;99.90;;;;;;4984207;28;20183;-35
2023/06/20 03:51:31;;;;;;;6.88;6.28;;;19.50;99.90;;;;;;4991553;28;20194;-41
2023/06/20 03:53:57;;;;;;;6.55;5.80;;;19.40;99.90;;;;;;4991121;28;20183;-33
2023/06/20 03:56:33;;;;;;;6.32;5.72;;;19.40;99.90;;;;;;5004538;28;20203;-36
2023/06/20 03:59:01;;;;;;;6.03;5.53;;;19.40;99.90;;;;;;4996373;28;20179;-38
2023/06/20 04:01:33;;;;;;;6.28;5.68;;;19.40;99.90;;;;;;5006200;28;20318;-37
2023/06/20 04:04:16;;;;;;;6.15;5.57;;;19.50;99.90;;;;;;4997888;28;20178;-38
2023/06/20 04:06:42;;;;;;;6.03;5.45;;;19.50;99.90;;;;;;5000203;28;20277;-41
2023/06/20 04:09:09;;;;;;;7.15;5.93;;;19.50;99.90;;;;;;5006990;28;20183;-39
2023/06/20 04:11:35;;;;;;;7.53;6.35;;;19.40;99.90;;;;;;5008859;28;20187;-37
2023/06/20 04:14:02;;;;;;;6.95;6.10;;;19.40;99.90;;;;;;4989627;28;20195;-39
2023/06/20 04:16:28;;;;;;;7.40;6.53;;;19.40;99.90;;;;;;5006439;28;20269;-43
2023/06/20 04:18:56;;;;;;;7.50;6.65;;;19.30;99.90;;;;;;5009866;28;20184;-41
2023/06/20 04:21:23;;;;;;;6.93;6.32;;;19.20;99.90;;;;;;4992367;28;20259;-37
2023/06/20 04:23:50;;;;;;;9.45;6.75;;;19.00;99.90;;;;;;4990298;28;20207;-41
2023/06/20 04:26:16;;;;;;;7.72;6.22;;;19.00;99.90;;;;;;5006090;28;20241;-38
2023/06/20 04:28:42;;;;;;;7.32;6.72;;;19.10;99.90;;;;;;5007515;28;20195;-39
2023/06/20 04:31:08;;;;;;;8.23;6.85;;;19.20;99.90;;;;;;5013465;28;20683;-37
2023/06/20 04:33:35;;;;;;;7.63;6.60;;;19.30;99.90;;;;;;4985982;28;20184;-36
2023/06/20 04:36:01;;;;;;;7.32;6.63;;;19.30;99.90;;;;;;4992783;28;20211;-37
2023/06/20 04:38:31;;;;;;;7.20;6.43;;;19.30;99.90;;;;;;4996454;28;20187;-40
2023/06/20 04:41:00;;;;;;;7.93;6.72;;;19.30;99.90;;;;;;4994647;28;20202;-37
2023/06/20 04:43:26;;;;;;;8.30;6.68;;;19.50;99.90;;;;;;5011922;28;20183;-36
2023/06/20 04:45:53;;;;;;;7.47;6.63;;;19.50;99.90;;;;;;4994631;28;20188;-38
2023/06/20 04:48:18;;;;;;;7.10;6.40;;;19.60;99.90;;;;;;4993157;28;20211;-38
2023/06/20 04:50:44;;;;;;;7.15;6.35;;;19.70;99.90;;;;;;4989300;28;20195;-37
2023/06/20 04:53:10;;;;;;;7.13;5.18;;;19.70;99.90;;;;;;5005882;28;20186;-33
2023/06/20 04:55:38;;;;;;;6.72;4.63;;;19.80;99.90;;;;;;4994965;28;20207;-38
2023/06/20 04:58:04;;;;;;;9.60;5.35;;;19.90;99.90;;;;;;4995328;28;20199;-35
2023/06/20 05:00:31;;;;;;;5.85;5.35;;;19.90;99.90;;;;;;4996022;28;20179;-38
2023/06/20 05:02:58;;;;;;;5.75;5.20;;;20.00;99.90;;;;;;4989885;28;20184;-35
2023/06/20 05:05:29;;;;;;;7.22;5.63;;;20.10;99.90;;;;;;5000333;28;20236;-35
2023/06/20 05:07:56;;;;;;;6.93;5.38;;;20.10;99.90;;;;;;4992475;28;20310;-37
2023/06/20 05:10:23;;;;;;;8.35;5.22;;;20.20;99.90;;;;;;5001953;28;20215;-37
2023/06/20 05:12:48;;;;;;;6.70;4.60;;;20.20;99.90;;;;;;4992788;28;20214;-40
2023/06/20 05:15:15;;;;;;;6.18;4.45;;;20.20;99.90;;;;;;4994867;28;20218;-38
2023/06/20 05:17:41;;;;;;;7.60;6.25;;;20.20;99.90;;;;;;4986715;28;20219;-39
2023/06/20 05:20:08;;;;;;;7.93;7.05;;;20.20;99.90;;;;;;5005186;28;20177;-40
2023/06/20 05:22:34;;;;;;;8.57;7.72;;;20.20;99.90;;;;;;4990492;28;20184;-38
2023/06/20 05:25:01;;;;;;;8.05;7.25;;;20.30;99.90;;;;;;4995280;28;20222;-38
2023/06/20 05:27:27;;;;;;;7.82;6.60;;;20.30;99.90;;;;;;4996334;28;20215;-40
2023/06/20 05:29:53;;;;;;;8.68;6.80;;;20.30;99.90;;;;;;4994103;28;20187;-39
2023/06/20 05:32:18;;;;;;;7.13;6.43;;;20.40;99.90;;;;;;5007531;28;20279;-40
2023/06/20 05:34:44;;;;;;;7.50;5.95;;;20.40;99.90;;;;;;4995460;28;20215;-38
2023/06/20 05:37:10;;;;;;;5.70;5.20;;;20.40;99.90;;;;;;4994740;28;20479;-41
2023/06/20 05:39:37;;;;;;;5.53;4.93;;;20.60;99.90;;;;;;4993301;28;20182;-37
2023/06/20 05:42:04;;;;;;;5.93;4.90;;;20.70;99.90;;;;;;4979396;28;20184;-42
2023/06/20 05:44:30;;;;;;;8.10;4.55;;;20.80;99.90;;;;;;4985369;28;20266;-41
2023/06/20 05:46:55;;;;;;;7.43;4.63;;;20.90;99.90;;;;;;5001854;28;20275;-41
2023/06/20 05:49:21;;;;;;;6.80;4.90;;;21.00;99.90;;;;;;4993175;28;20191;-40
2023/06/20 05:51:48;;;;;;;6.70;4.45;;;21.10;99.90;;;;;;4987507;28;20187;-39
2023/06/20 05:54:14;;;;;;;5.90;4.60;;;21.20;99.90;;;;;;4996562;28;20179;-42
2023/06/20 05:56:40;;;;;;;6.78;4.78;;;21.40;99.90;;;;;;4980627;28;20294;-44
2023/06/20 05:59:06;;;;;;;5.55;4.90;;;21.50;99.90;;;;;;5004674;28;20180;-42
2023/06/20 06:01:32;;;;;;;7.30;5.60;;;21.70;99.90;;;;;;5006235;28;20195;-42
2023/06/20 06:03:58;;;;;;;7.97;5.20;;;21.70;99.90;;;;;;5001051;28;20191;-42
2023/06/20 06:06:25;;;;;;;7.90;4.95;;;21.80;99.90;;;;;;4993042;28;20226;-43
2023/06/20 06:08:51;;;;;;;8.57;4.75;;;21.80;99.90;;;;;;5001458;28;20197;-43
2023/06/20 06:11:17;;;;;;;6.78;5.22;;;21.90;99.90;;;;;;5011858;28;20285;-40
2023/06/20 06:13:43;;;;;;;6.88;5.57;;;21.90;99.90;;;;;;4999068;28;20186;-43
2023/06/20 06:16:09;;;;;;;8.30;5.35;;;22.00;99.90;;;;;;4999377;28;20275;-42
2023/06/20 06:18:34;;;;;;;8.45;5.45;;;22.00;99.90;;;;;;4991233;28;20211;-40
2023/06/20 06:21:00;;;;;;;7.18;5.22;;;22.00;99.90;;;;;;4986546;28;20190;-42
2023/06/20 06:23:27;;;;;;;6.65;5.32;;;22.00;99.90;;;;;;4984215;28;20239;-41
2023/06/20 06:25:52;;;;;;;9.52;5.68;;;22.10;99.90;;;;;;5009362;28;20187;-41
2023/06/20 06:28:18;;;;;;;8.50;5.43;;;22.20;99.90;;;;;;4984273;28;20204;-42
2023/06/20 06:30:44;;;;;;;6.97;5.20;;;22.30;99.90;;;;;;4993649;28;20188;-43
2023/06/20 06:33:11;;;;;;;6.07;5.07;;;22.40;99.90;;;;;;5010092;28;20183;-43
2023/06/20 06:35:38;;;;;;;6.90;4.95;;;22.70;99.90;;;;;;4994779;28;20215;-42
2023/06/20 06:38:07;;;;;;;6.53;4.72;;;22.90;99.90;;;;;;4975124;28;20200;-42
2023/06/20 06:40:33;;;;;;;5.63;5.10;;;23.00;99.90;;;;;;4986961;28;20199;-43
2023/06/20 06:42:59;;;;;;;7.00;5.05;;;23.10;99.90;;;;;;5000663;28;20179;-42
2023/06/20 06:45:28;;;;;;;5.63;5.07;;;23.30;99.90;;;;;;4986253;28;20194;-42
2023/06/20 06:47:54;;;;;;;7.13;5.22;;;23.50;99.90;;;;;;4992261;28;20236;-41
2023/06/20 06:50:20;;;;;;;10.98;5.72;;;23.60;99.90;;;;;;4995705;28;20187;-41
2023/06/20 06:52:46;;;;;;;6.22;5.07;;;23.50;99.90;;;;;;4993832;28;20198;-41
2023/06/20 06:55:12;;;;;;;9.45;5.60;;;23.70;99.90;;;;;;5002173;28;20203;-43
2023/06/20 06:57:38;;;;;;;7.13;5.43;;;23.80;99.90;;;;;;5001671;28;20203;-42
2023/06/20 07:00:09;;;;;;;5.70;4.88;;;23.90;99.90;;;;;;4998135;28;20183;-41
2023/06/20 07:02:35;;;;;;;12.45;5.95;;;24.10;99.90;;;;;;5013789;28;20187;-41
2023/06/20 07:05:02;;;;;;;6.30;5.05;;;24.30;99.90;;;;;;4983681;28;20242;-42
2023/06/20 07:07:27;;;;;;;8.45;5.75;;;24.50;99.90;;;;;;4990689;28;20314;-42
2023/06/20 07:09:53;;;;;;;5.28;4.78;;;24.50;99.90;;;;;;5006419;28;20270;-42
2023/06/20 07:12:19;;;;;;;7.43;5.25;;;24.70;99.90;;;;;;4994749;28;20183;-37
2023/06/20 07:14:45;;;;;;;8.43;4.68;;;24.80;99.90;;;;;;4990374;28;20191;-44
2023/06/20 07:17:11;;;;;;;7.35;5.25;;;24.90;99.90;;;;;;5010524;28;20215;-42
2023/06/20 07:19:37;;;;;;;5.85;5.28;;;25.10;99.90;;;;;;5005788;28;20183;-42
2023/06/20 07:22:03;;;;;;;8.30;6.15;;;25.20;99.90;;;;;;4983224;28;20194;-42
2023/06/20 07:24:29;;;;;;;8.65;5.53;;;25.30;99.90;;;;;;4998130;28;20262;-40
2023/06/20 07:26:55;;;;;;;6.72;5.25;;;25.20;99.90;;;;;;4985086;28;20291;-41
2023/06/20 07:29:20;;;;;;;6.63;5.45;;;25.30;99.90;;;;;;5015520;28;20314;-42
2023/06/20 07:31:46;;;;;;;7.07;5.13;;;25.30;99.90;;;;;;4993071;28;20191;-42
2023/06/20 07:34:12;;;;;;;7.57;5.22;;;25.40;99.90;;;;;;4974199;28;20246;-42
2023/06/20 07:36:38;;;;;;;7.65;6.18;;;25.40;99.90;;;;;;4997250;28;20211;-41
2023/06/20 07:39:04;;;;;;;7.75;5.82;;;25.30;99.90;;;;;;5005203;28;20187;-43
2023/06/20 07:41:30;;;;;;;6.57;5.03;;;25.30;99.90;;;;;;4995820;28;20292;-42
2023/06/20 07:43:55;;;;;;;6.40;5.40;;;25.40;99.90;;;;;;4995070;28;20203;-42
2023/06/20 07:46:21;;;;;;;8.88;5.82;;;25.40;99.90;;;;;;5003014;28;20199;-41
2023/06/20 07:48:48;;;;;;;8.52;5.90;;;25.30;99.90;;;;;;5001111;28;20188;-41
2023/06/20 07:51:14;;;;;;;7.50;5.25;;;25.30;99.90;;;;;;5008627;28;20187;-42
2023/06/20 07:53:39;;;;;;;6.65;5.75;;;25.40;99.90;;;;;;4977799;28;20183;-40
2023/06/20 07:56:08;;;;;;;6.38;5.70;;;25.50;99.90;;;;;;4992244;28;20222;-41
2023/06/20 07:58:34;;;;;;;7.60;5.63;;;25.60;99.90;;;;;;5006511;28;20270;-41
2023/06/20 08:01:00;;;;;;;7.63;5.72;;;25.60;99.90;;;;;;4977205;28;20254;-41
2023/06/20 08:03:26;;;;;;;10.00;5.68;;;25.70;99.90;;;;;;4995880;28;20180;-41
2023/06/20 08:05:52;;;;;;;9.10;6.15;;;25.90;99.90;;;;;;4982108;28;20187;-41
2023/06/20 08:08:18;;;;;;;5.93;5.28;;;26.00;99.90;;;;;;5000989;28;20231;-42
2023/06/20 08:10:44;;;;;;;7.05;5.55;;;26.00;99.90;;;;;;5001743;28;20212;-41
2023/06/20 08:13:10;;;;;;;7.63;5.60;;;26.10;99.90;;;;;;5009732;28;20226;-40
2023/06/20 08:15:36;;;;;;;5.80;5.20;;;26.20;99.90;;;;;;5006562;28;20331;-41
2023/06/20 08:18:01;;;;;;;6.78;5.93;;;26.40;99.90;;;;;;5009336;28;20203;-41
2023/06/20 08:20:27;;;;;;;10.35;5.68;;;26.40;99.90;;;;;;5007241;28;20233;-42
2023/06/20 08:22:53;;;;;;;5.75;5.25;;;26.30;99.90;;;;;;4996583;28;20199;-41
2023/06/20 08:25:19;;;;;;;7.97;5.40;;;26.50;99.90;;;;;;5008587;28;20274;-37
2023/06/20 08:27:45;;;;;;;8.98;5.72;;;26.60;99.90;;;;;;5001230;28;20215;-42
2023/06/20 08:30:11;;;;;;;8.60;5.75;;;26.80;99.90;;;;;;4994316;28;20225;-42
2023/06/20 08:32:41;;;;;;;6.80;6.10;;;27.00;99.90;;;;;;5005336;28;20188;-41
2023/06/20 08:35:09;;;;;;;7.18;5.43;;;27.30;99.90;;;;;;5000143;28;20262;-42
2023/06/20 08:37:37;;;;;;;8.45;6.18;;;27.60;99.90;;;;;;5007546;28;20203;-41
2023/06/20 08:40:08;;;;;;;6.57;5.40;;;27.90;99.90;;;;;;4985993;28;20184;-41
2023/06/20 08:42:34;;;;;;;8.18;5.97;;;28.10;99.90;;;;;;4989898;28;20392;-42
2023/06/20 08:45:00;;;;;;;9.18;6.03;;;28.30;99.90;;;;;;4980538;28;20310;-41
2023/06/20 08:47:26;;;;;;;7.78;5.80;;;28.40;99.90;;;;;;4992998;28;20204;-43
2023/06/20 08:49:52;;;;;;;6.40;5.75;;;28.50;99.90;;;;;;5011985;28;20202;-42
2023/06/20 08:52:24;;;;;;;6.22;5.47;;;28.60;99.90;;;;;;4991548;28;20176;-42
2023/06/20 08:54:51;;;;;;;10.98;5.75;;;28.80;99.90;;;;;;5003564;28;20210;-42
2023/06/20 08:57:18;;;;;;;8.10;5.95;;;28.70;99.90;;;;;;5000580;28;20226;-42
2023/06/20 08:59:44;;;;;;;7.90;5.40;;;28.90;99.90;;;;;;4992574;28;20657;-42
2023/06/20 09:02:11;;;;;;;6.40;5.35;;;29.00;99.90;;;;;;5020473;28;20199;-42
2023/06/20 09:04:37;;;;;;;7.10;6.03;;;29.30;99.90;;;;;;4996112;28;20183;-43
2023/06/20 09:07:17;;;;;;;9.27;5.68;;;29.50;99.90;;;;;;4995438;28;20222;-42
2023/06/20 09:09:43;;;;;;;7.57;5.53;;;29.50;99.90;;;;;;5009100;28;20183;-41
2023/06/20 09:12:09;;;;;;;7.43;5.03;;;29.30;99.90;;;;;;5010115;28;20245;-42
2023/06/20 09:14:35;;;;;;;9.82;5.70;;;29.40;99.90;;;;;;5020738;28;20320;-42
2023/06/20 09:17:01;;;;;;;10.13;6.45;;;29.50;99.90;;;;;;5001593;28;20274;-43
2023/06/20 09:19:26;;;;;;;7.97;5.80;;;29.80;99.90;;;;;;5002668;28;20187;-42
2023/06/20 09:22:04;;;;;;;8.32;5.57;;;30.00;99.90;;;;;;4994164;28;20176;-43
2023/06/20 09:24:44;;;;;;;7.82;5.95;;;30.10;99.90;;;;;;5016555;28;20226;-41
2023/06/20 09:27:12;;;;;;;8.07;5.72;;;30.20;99.90;;;;;;5011459;28;20235;-43
2023/06/20 09:30:00;;;;;;;7.63;5.40;;;30.10;99.90;;;;;;5008328;28;20228;-43
2023/06/20 09:32:25;;;;;;;8.00;5.50;;;30.30;99.90;;;;;;5004387;28;20183;-42
2023/06/20 09:34:52;;;;;;;6.65;5.57;;;30.40;99.90;;;;;;4986157;28;20198;-42
2023/06/20 09:37:18;;;;;;;7.43;5.68;;;30.40;99.90;;;;;;5000083;28;20207;-42
2023/06/20 09:39:44;;;;;;;6.75;5.30;;;30.60;99.90;;;;;;4995391;28;20198;-41
2023/06/20 09:42:12;;;;;;;6.78;5.22;;;30.80;99.90;;;;;;4991649;28;20179;-43
2023/06/20 09:44:42;;;;;;;7.72;6.03;;;30.80;99.90;;;;;;5003832;28;20256;-42
2023/06/20 09:47:08;;;;;;;7.38;5.90;;;30.90;99.90;;;;;;4998694;28;20235;-43
2023/06/20 09:49:35;;;;;;;6.60;5.60;;;31.00;99.90;;;;;;5006418;28;20183;-43
2023/06/20 09:52:07;;;;;;;6.50;5.20;;;31.20;99.90;;;;;;4991571;28;20186;-43
2023/06/20 09:54:50;;;;;;;5.97;5.38;;;31.20;99.90;;;;;;5020422;28;20208;-41
2023/06/20 09:57:21;;;;;;;8.63;5.60;;;31.10;99.90;;;;;;4993999;28;20406;-43
2023/06/20 09:59:50;;;;;;;6.35;5.57;;;31.20;99.90;;;;;;5009082;28;20222;-44
2023/06/20 10:02:18;;;;;;;6.03;5.05;;;31.40;99.90;;;;;;5015432;28;20179;-43
2023/06/20 10:04:46;;;;;;;7.10;5.30;;;31.50;99.90;;;;;;4992720;28;20183;-43
2023/06/20 10:07:14;;;;;;;8.55;5.35;;;31.70;99.90;;;;;;4999482;28;20219;-42
2023/06/20 10:09:41;;;;;;;5.47;4.70;;;31.50;99.90;;;;;;5001261;28;20191;-42
2023/06/20 10:12:09;;;;;;;6.72;4.68;;;31.40;99.90;;;;;;4999840;28;20229;-43
2023/06/20 10:14:36;;;;;;;10.18;5.57;;;31.30;99.90;;;;;;5000584;28;20215;-43
2023/06/20 10:17:11;;;;;;;7.90;5.45;;;31.20;99.90;;;;;;4990659;28;20243;-43
2023/06/20 10:19:51;;;;;;;8.63;5.13;;;31.20;99.90;;;;;;5001740;28;20179;-42
2023/06/20 10:22:42;;;;;;;6.85;5.20;;;31.40;99.90;;;;;;5011494;28;20234;-42
2023/06/20 10:25:14;;;;;;;10.93;6.78;;;31.70;99.90;;;;;;5015319;28;20227;-43
2023/06/20 10:27:42;;;;;;;5.97;5.25;;;31.70;99.90;;;;;;5011232;28;20206;-43
2023/06/20 10:30:12;;;;;;;7.00;4.90;;;31.90;99.90;;;;;;4999139;28;20184;-43
2023/06/20 10:33:08;;;;;;;6.60;5.03;;;32.00;99.90;;;;;;5008934;28;20211;-42
2023/06/20 10:35:34;;;;;;;5.72;5.13;;;32.00;99.90;;;;;;4996987;28;20214;-43
2023/06/20 10:38:08;;;;;;;5.97;4.82;;;32.00;99.90;;;;;;4985840;28;20203;-43
2023/06/20 10:40:37;;;;;;;6.10;5.03;;;32.00;99.90;;;;;;5018142;28;20183;-43
2023/06/20 10:43:17;;;;;;;6.75;4.72;;;31.80;99.90;;;;;;4992704;28;20183;-43
2023/06/20 10:45:57;;;;;;;7.43;5.30;;;31.80;99.90;;;;;;5010022;28;20190;-43
2023/06/20 10:48:24;;;;;;;6.40;4.90;;;31.70;99.90;;;;;;4987595;28;20206;-43
2023/06/20 10:50:51;;;;;;;7.28;4.80;;;31.70;99.90;;;;;;4994002;28;20191;-44
2023/06/20 10:53:17;;;;;;;7.72;5.50;;;31.70;99.90;;;;;;4990406;28;20184;-42
2023/06/20 10:55:43;;;;;;;4.95;4.45;;;31.60;99.90;;;;;;5009917;28;20200;-42
2023/06/20 10:58:09;;;;;;;7.57;5.05;;;31.70;99.90;;;;;;4990320;28;20295;-42
2023/06/20 11:00:35;;;;;;;8.40;5.13;;;31.70;99.90;;;;;;4989202;28;20175;-43
2023/06/20 11:03:01;;;;;;;5.35;4.85;;;31.70;99.90;;;;;;5008532;28;20238;-43
2023/06/20 11:05:29;;;;;;;7.25;5.03;;;31.70;99.90;;;;;;4998783;28;20184;-43
2023/06/20 11:08:00;;;;;;;8.27;5.28;;;31.80;99.90;;;;;;4984932;28;20301;-41
2023/06/20 11:10:34;;;;;;;6.90;5.32;;;31.80;99.90;;;;;;4994026;28;20184;-42
2023/06/20 11:13:02;;;;;;;6.55;5.10;;;32.00;99.90;;;;;;4983266;28;20186;-43
2023/06/20 11:15:32;;;;;;;6.35;5.43;;;32.30;99.90;;;;;;5006677;28;20282;-43
2023/06/20 11:18:02;;;;;;;7.28;5.93;;;32.40;99.90;;;;;;4990974;28;20206;-42
2023/06/20 11:20:29;;;;;;;7.00;5.15;;;32.20;99.90;;;;;;4998417;28;20184;-42
2023/06/20 11:22:58;;;;;;;6.50;5.15;;;32.40;99.90;;;;;;4998795;28;20230;-42
2023/06/20 11:25:29;;;;;;;8.50;5.68;;;32.40;99.90;;;;;;5016053;28;20210;-43
2023/06/20 11:28:03;;;;;;;8.88;5.95;;;32.10;99.90;;;;;;4989020;28;20213;-41
2023/06/20 11:30:30;;;;;;;10.00;5.97;;;31.80;99.90;;;;;;5006530;28;20183;-41
2023/06/20 11:33:04;;;;;;;8.50;5.50;;;31.60;99.90;;;;;;5005653;28;20191;-39
2023/06/20 11:35:52;;;;;;;13.00;5.82;;;31.40;99.90;;;;;;5001203;28;20330;-40
2023/06/20 11:38:23;;;;;;;8.32;5.85;;;31.50;99.90;;;;;;4990359;28;20206;-42
2023/06/20 11:41:04;;;;;;;7.82;5.70;;;31.60;99.90;;;;;;5011965;28;20205;-43
2023/06/20 11:43:43;;;;;;;7.45;5.68;;;31.70;99.90;;;;;;4997133;28;20636;-42
2023/06/20 11:46:11;;;;;;;7.10;5.50;;;31.90;99.90;;;;;;4993582;28;20191;-42
2023/06/20 11:48:49;;;;;;;8.85;5.70;;;31.90;99.90;;;;;;4995173;28;20236;-42
2023/06/20 11:51:15;;;;;;;8.75;6.18;;;31.80;99.90;;;;;;5007892;28;20183;-41
2023/06/20 11:53:41;;;;;;;11.80;6.30;;;31.90;99.90;;;;;;5007717;28;20187;-41
2023/06/20 11:56:14;;;;;;;11.65;6.03;;;31.90;99.90;;;;;;5008537;28;20227;-41
2023/06/20 11:58:42;;;;;;;12.80;5.93;;;31.90;99.90;;;;;;5005757;28;20191;-43
2023/06/20 12:01:09;;;;;;;6.55;5.93;;;32.00;99.90;;;;;;5009953;28;20175;-42
2023/06/20 12:03:36;;;;;;;7.65;6.05;;;32.30;99.90;;;;;;4995435;28;20180;-43
2023/06/20 12:06:03;;;;;;;9.35;5.60;;;32.60;99.90;;;;;;4996347;28;20270;-43
2023/06/20 12:08:34;;;;;;;7.93;5.85;;;32.80;99.90;;;;;;5011481;28;20184;-41
2023/06/20 12:11:02;;;;;;;10.77;6.53;;;32.90;99.90;;;;;;5012311;28;20187;-44
2023/06/20 12:13:30;;;;;;;6.88;6.05;;;33.20;99.90;;;;;;4999460;28;20187;-42
2023/06/20 12:15:57;;;;;;;6.32;5.63;;;33.20;99.90;;;;;;4995837;28;20212;-42
2023/06/20 12:18:23;;;;;;;7.25;5.90;;;33.40;99.90;;;;;;5004770;28;20199;-43
2023/06/20 12:20:49;;;;;;;9.13;5.97;;;33.70;99.90;;;;;;5001989;28;20179;-43
2023/06/20 12:23:15;;;;;;;7.70;5.95;;;33.60;99.40;;;;;;4988094;28;20203;-42
2023/06/20 12:25:41;;;;;;;6.97;5.75;;;33.80;99.90;;;;;;5014402;28;20286;-43
2023/06/20 12:28:08;;;;;;;7.25;6.20;;;33.80;99.90;;;;;;5008852;28;20257;-42
2023/06/20 12:30:34;;;;;;;9.95;6.20;;;34.10;99.60;;;;;;5003836;28;20195;-43
2023/06/20 12:33:00;;;;;;;8.18;5.30;;;34.20;99.20;;;;;;5011702;28;20209;-42
2023/06/20 12:35:26;;;;;;;7.55;6.00;;;34.40;99.40;;;;;;4997386;28;20200;-43
2023/06/20 12:37:52;;;;;;;9.45;5.57;;;34.60;99.30;;;;;;5001492;28;20208;-43
2023/06/20 12:40:19;;;;;;;8.85;5.18;;;34.30;96.70;;;;;;5017141;28;20248;-43
2023/06/20 12:42:45;;;;;;;7.40;5.35;;;34.10;96.70;;;;;;5000803;28;20184;-42
2023/06/20 12:45:11;;;;;;;8.35;5.00;;;34.30;96.80;;;;;;4991089;28;20195;-43
2023/06/20 12:47:38;;;;;;;9.48;5.40;;;34.60;96.10;;;;;;4988046;28;20208;-43
2023/06/20 12:50:05;;;;;;;8.70;5.57;;;34.70;94.50;;;;;;4994150;28;20193;-43
2023/06/20 12:52:31;;;;;;;12.40;5.82;;;34.90;94.60;;;;;;5001873;28;20184;-43